createdAt,value
2022-10-26T00:01:23.561Z,99.90
2022-10-26T00:03:52.078Z,99.90
2022-10-26T00:06:22.569Z,99.90
2022-10-26T00:08:51.152Z,99.90
2022-10-26T00:11:19.646Z,99.90
2022-10-26T00:13:48.526Z,99.90
2022-10-26T00:16:22.892Z,99.90
2022-10-26T00:18:51.557Z,99.90
2022-10-26T00:21:20.024Z,99.90
2022-10-26T00:23:48.244Z,99.90
2022-10-26T00:26:16.233Z,99.90
2022-10-26T00:28:44.289Z,99.90
2022-10-26T00:31:16.042Z,99.90
2022-10-26T00:33:44.535Z,99.90
2022-10-26T00:36:14.707Z,99.90
2022-10-26T00:38:46.288Z,99.90
2022-10-26T00:41:19.951Z,99.90
2022-10-26T00:43:48.317Z,99.90
2022-10-26T00:46:22.201Z,99.90
2022-10-26T00:48:59.161Z,99.90
2022-10-26T00:51:37.399Z,99.90
2022-10-26T00:54:10.819Z,99.90
2022-10-26T00:56:40.227Z,99.90
2022-10-26T00:59:10.895Z,99.90
2022-10-26T01:01:41.440Z,99.90
2022-10-26T01:04:10.394Z,99.90
2022-10-26T01:06:39.872Z,99.90
2022-10-26T01:09:08.259Z,99.90
2022-10-26T01:11:36.427Z,99.90
2022-10-26T01:14:08.967Z,99.90
2022-10-26T01:17:06.346Z,99.90
2022-10-26T01:20:02.144Z,99.90
2022-10-26T01:22:32.100Z,99.90
2022-10-26T01:25:09.139Z,99.90
2022-10-26T01:27:40.907Z,99.90
2022-10-26T01:30:27.431Z,99.90
2022-10-26T01:33:19.550Z,99.90
2022-10-26T01:36:00.619Z,99.90
2022-10-26T01:38:37.195Z,99.90
2022-10-26T01:41:11.505Z,99.90
2022-10-26T01:43:44.045Z,99.90
2022-10-26T01:46:13.120Z,99.90
2022-10-26T01:48:42.575Z,99.90
2022-10-26T01:51:12.967Z,99.90
2022-10-26T01:53:47.005Z,99.90
2022-10-26T01:56:21.504Z,99.90
2022-10-26T01:58:53.503Z,99.90
2022-10-26T02:01:50.480Z,99.90
2022-10-26T02:07:24.402Z,99.90
2022-10-26T02:10:10.740Z,99.90
2022-10-26T02:13:02.827Z,99.90
2022-10-26T02:15:58.900Z,99.90
2022-10-26T02:18:38.470Z,99.90
2022-10-26T02:21:10.818Z,99.90
2022-10-26T02:23:43.368Z,99.90
2022-10-26T02:26:14.006Z,99.90
2022-10-26T02:28:45.218Z,99.90
2022-10-26T02:31:15.131Z,99.90
2022-10-26T02:36:41.778Z,99.90
2022-10-26T02:39:11.596Z,99.90
2022-10-26T02:41:41.965Z,99.90
2022-10-26T02:44:18.851Z,99.90
2022-10-26T02:46:46.767Z,99.90
2022-10-26T02:49:15.017Z,99.90
2022-10-26T02:52:08.020Z,99.90
2022-10-26T02:55:01.081Z,99.90
2022-10-26T02:57:40.079Z,99.90
2022-10-26T03:02:39.074Z,99.90
2022-10-26T03:05:18.241Z,99.90
2022-10-26T03:07:45.945Z,99.90
2022-10-26T03:10:13.994Z,99.90
2022-10-26T03:12:41.826Z,99.90
2022-10-26T03:15:10.294Z,99.90
2022-10-26T03:17:38.093Z,99.90
2022-10-26T03:20:06.768Z,99.90
2022-10-26T03:22:34.711Z,99.90
2022-10-26T03:25:03.226Z,99.90
2022-10-26T03:27:31.225Z,99.90
2022-10-26T03:29:59.371Z,99.90
2022-10-26T03:32:27.110Z,99.90
2022-10-26T03:34:55.166Z,99.90
2022-10-26T03:37:22.874Z,99.90
2022-10-26T03:39:50.960Z,99.90
2022-10-26T03:42:18.724Z,99.90
2022-10-26T03:44:47.468Z,99.90
2022-10-26T03:47:15.353Z,99.90
2022-10-26T03:49:43.498Z,99.90
2022-10-26T03:52:11.251Z,99.90
2022-10-26T03:54:40.014Z,99.90
2022-10-26T03:57:07.847Z,99.90
2022-10-26T03:59:35.961Z,99.90
2022-10-26T04:02:03.961Z,99.90
2022-10-26T04:04:32.389Z,99.90
2022-10-26T04:07:00.267Z,99.90
2022-10-26T04:09:28.375Z,99.90
2022-10-26T04:11:56.177Z,99.90
2022-10-26T04:14:24.343Z,99.90
2022-10-26T04:16:52.063Z,99.90
2022-10-26T04:19:20.088Z,99.90
2022-10-26T04:21:47.911Z,99.90
2022-10-26T04:24:16.458Z,99.90
2022-10-26T04:26:45.397Z,99.90
2022-10-26T04:29:14.030Z,99.90
2022-10-26T04:34:30.750Z,99.90
2022-10-26T04:36:58.447Z,99.90
2022-10-26T04:39:26.461Z,99.90
2022-10-26T04:41:55.095Z,99.90
2022-10-26T04:44:23.237Z,99.90
2022-10-26T04:46:50.918Z,99.90
2022-10-26T04:49:19.305Z,99.90
2022-10-26T04:51:47.083Z,99.90
2022-10-26T04:54:15.305Z,99.90
2022-10-26T04:56:43.346Z,99.90
2022-10-26T04:59:11.377Z,99.90
2022-10-26T05:01:39.142Z,99.90
2022-10-26T05:04:07.221Z,99.90
2022-10-26T05:06:35.200Z,99.90
2022-10-26T05:09:03.872Z,99.90
2022-10-26T05:11:31.561Z,99.90
2022-10-26T05:13:59.560Z,99.90
2022-10-26T05:16:27.239Z,99.90
2022-10-26T05:18:55.410Z,99.90
2022-10-26T05:21:23.193Z,99.90
2022-10-26T05:23:55.626Z,99.90
2022-10-26T05:26:23.961Z,99.90
2022-10-26T05:28:52.979Z,99.90
2022-10-26T05:31:21.844Z,99.90
2022-10-26T05:33:51.272Z,99.90
2022-10-26T05:36:19.550Z,99.90
2022-10-26T05:38:48.271Z,99.90
2022-10-26T05:41:16.198Z,99.90
2022-10-26T05:43:47.149Z,99.90
2022-10-26T05:46:14.950Z,99.90
2022-10-26T05:48:43.310Z,99.90
2022-10-26T05:51:12.715Z,99.90
2022-10-26T05:53:40.743Z,99.90
2022-10-26T05:56:19.784Z,99.90
2022-10-26T05:58:48.917Z,99.90
2022-10-26T06:01:19.501Z,99.90
2022-10-26T06:04:39.894Z,99.90
2022-10-26T06:07:20.662Z,99.90
2022-10-26T06:09:48.939Z,99.90
2022-10-26T06:12:19.545Z,99.90
2022-10-26T06:14:48.549Z,99.90
2022-10-26T06:17:54.082Z,99.90
2022-10-26T06:20:39.495Z,99.90
2022-10-26T06:23:28.222Z,99.90
2022-10-26T06:26:21.875Z,99.90
2022-10-26T06:29:15.302Z,99.90
2022-10-26T06:31:43.956Z,99.90
2022-10-26T06:34:12.838Z,99.90
2022-10-26T06:36:41.800Z,99.90
2022-10-26T06:39:12.676Z,99.90
2022-10-26T06:41:43.335Z,99.90
2022-10-26T06:44:21.496Z,99.90
2022-10-26T06:46:56.038Z,99.90
2022-10-26T06:49:40.338Z,99.90
2022-10-26T06:52:32.290Z,99.90
2022-10-26T06:55:01.040Z,99.90
2022-10-26T06:57:34.134Z,99.90
2022-10-26T07:00:23.488Z,99.90
2022-10-26T07:02:52.157Z,99.90
2022-10-26T07:05:20.163Z,99.90
2022-10-26T07:07:48.795Z,99.90
2022-10-26T07:10:17.215Z,99.90
2022-10-26T07:12:45.317Z,99.90
2022-10-26T07:15:13.173Z,99.90
2022-10-26T07:17:50.048Z,99.90
2022-10-26T07:20:20.351Z,99.90
2022-10-26T07:22:56.221Z,99.90
2022-10-26T07:25:25.536Z,99.90
2022-10-26T07:28:00.987Z,99.90
2022-10-26T07:30:30.697Z,99.90
2022-10-26T07:33:08.275Z,99.90
2022-10-26T07:35:36.409Z,99.90
2022-10-26T07:38:05.365Z,99.90
2022-10-26T07:40:33.668Z,99.90
2022-10-26T07:43:01.941Z,99.90
2022-10-26T07:45:30.319Z,99.90
2022-10-26T07:47:58.489Z,99.90
2022-10-26T07:50:26.251Z,99.90
2022-10-26T07:52:54.806Z,99.90
2022-10-26T07:55:22.662Z,99.90
2022-10-26T07:57:53.818Z,99.90
2022-10-26T08:00:22.813Z,99.90
2022-10-26T08:02:50.997Z,99.90
2022-10-26T08:05:19.019Z,99.90
2022-10-26T08:07:47.403Z,99.90
2022-10-26T08:10:15.977Z,99.90
2022-10-26T08:12:44.459Z,99.90
2022-10-26T08:15:12.400Z,99.90
2022-10-26T08:17:40.554Z,99.90
2022-10-26T08:20:08.934Z,99.90
2022-10-26T08:22:37.081Z,99.90
2022-10-26T08:25:05.070Z,99.90
2022-10-26T08:27:33.118Z,99.90
2022-10-26T08:30:00.859Z,99.90
2022-10-26T08:32:29.073Z,99.90
2022-10-26T08:34:56.820Z,99.90
2022-10-26T08:37:24.859Z,99.90
2022-10-26T08:39:55.238Z,99.90
2022-10-26T08:42:33.158Z,99.90
2022-10-26T08:45:12.341Z,99.90
2022-10-26T08:47:47.262Z,99.90
2022-10-26T08:50:21.533Z,99.90
2022-10-26T08:52:49.565Z,99.90
2022-10-26T08:55:21.365Z,99.90
2022-10-26T08:57:51.278Z,99.90
2022-10-26T09:00:22.209Z,99.90
2022-10-26T09:02:51.989Z,99.90
2022-10-26T09:05:36.774Z,99.90
2022-10-26T09:08:29.404Z,99.90
2022-10-26T09:11:26.576Z,99.90
2022-10-26T09:14:10.315Z,99.90
2022-10-26T09:16:50.350Z,99.90
2022-10-26T09:19:18.302Z,99.90
2022-10-26T09:22:04.706Z,99.90
2022-10-26T09:24:34.993Z,99.90
2022-10-26T09:27:07.772Z,99.90
2022-10-26T09:29:41.540Z,99.90
2022-10-26T09:32:23.739Z,99.90
2022-10-26T09:34:54.158Z,99.90
2022-10-26T09:37:30.194Z,99.90
2022-10-26T09:40:24.453Z,99.90
2022-10-26T09:43:00.191Z,99.90
2022-10-26T09:45:38.190Z,99.90
2022-10-26T09:48:44.703Z,99.90
2022-10-26T09:51:13.148Z,99.90
2022-10-26T09:53:40.863Z,99.90
2022-10-26T09:56:13.678Z,99.90
2022-10-26T09:58:47.223Z,99.90
2022-10-26T10:01:38.287Z,99.90
2022-10-26T10:04:10.233Z,99.90
2022-10-26T10:06:38.386Z,99.90
2022-10-26T10:09:12.400Z,99.90
2022-10-26T10:12:01.471Z,99.90
2022-10-26T10:14:39.846Z,99.90
2022-10-26T10:17:19.864Z,99.90
2022-10-26T10:19:47.926Z,99.90
2022-10-26T10:22:15.958Z,99.90
2022-10-26T10:24:57.556Z,99.90
2022-10-26T10:27:26.869Z,99.90
2022-10-26T10:29:59.970Z,99.90
2022-10-26T10:32:35.848Z,99.90
2022-10-26T10:35:24.419Z,99.90
2022-10-26T10:37:53.004Z,99.90
2022-10-26T10:40:31.711Z,99.90
2022-10-26T10:43:11.299Z,99.90
2022-10-26T10:45:39.597Z,99.90
2022-10-26T10:48:13.901Z,99.90
2022-10-26T10:50:53.264Z,99.90
2022-10-26T10:53:27.452Z,99.90
2022-10-26T10:56:06.513Z,99.90
2022-10-26T10:59:07.914Z,99.90
2022-10-26T11:01:44.649Z,99.90
2022-10-26T11:04:37.725Z,99.90
2022-10-26T11:07:08.106Z,99.90
2022-10-26T11:09:42.152Z,99.90
2022-10-26T11:12:19.044Z,99.90
2022-10-26T11:14:55.289Z,99.90
2022-10-26T11:17:31.825Z,99.90
2022-10-26T11:20:15.882Z,99.90
2022-10-26T11:23:00.783Z,99.90
2022-10-26T11:25:35.550Z,99.90
2022-10-26T11:28:33.290Z,99.90
2022-10-26T11:31:05.544Z,99.80
2022-10-26T11:33:47.188Z,99.90
2022-10-26T11:36:25.190Z,99.90
2022-10-26T11:39:06.171Z,99.90
2022-10-26T11:41:45.894Z,99.90
2022-10-26T11:44:40.540Z,99.90
2022-10-26T11:47:18.776Z,99.90
2022-10-26T11:50:14.756Z,99.90
2022-10-26T11:52:57.537Z,99.90
2022-10-26T11:55:25.364Z,99.40
2022-10-26T11:57:55.302Z,99.30
2022-10-26T12:00:23.680Z,99.70
2022-10-26T12:03:17.275Z,99.60
2022-10-26T12:05:52.411Z,99.00
2022-10-26T12:08:37.629Z,98.90
2022-10-26T12:11:20.800Z,98.90
2022-10-26T12:13:59.178Z,99.20
2022-10-26T12:16:51.051Z,99.20
2022-10-26T12:19:34.977Z,99.10
2022-10-26T12:22:03.135Z,99.00
2022-10-26T12:24:35.865Z,99.00
2022-10-26T12:27:06.426Z,99.10
2022-10-26T12:29:45.737Z,99.30
2022-10-26T12:32:34.371Z,99.40
2022-10-26T12:35:23.524Z,99.50
2022-10-26T12:37:52.200Z,99.70
2022-10-26T12:40:39.957Z,99.60
2022-10-26T12:43:16.737Z,99.70
2022-10-26T12:46:13.787Z,99.80
2022-10-26T12:48:48.509Z,99.60
2022-10-26T12:51:40.067Z,99.80
2022-10-26T12:54:11.191Z,99.30
2022-10-26T12:56:58.088Z,99.50
2022-10-26T13:00:03.289Z,99.00
2022-10-26T13:03:08.387Z,98.60
2022-10-26T13:05:57.051Z,98.70
2022-10-26T13:08:25.857Z,99.20
2022-10-26T13:11:13.223Z,99.20
2022-10-26T13:13:42.489Z,99.30
2022-10-26T13:16:13.257Z,99.20
2022-10-26T13:18:42.386Z,99.30
2022-10-26T13:21:20.864Z,99.20
2022-10-26T13:24:05.797Z,99.40
2022-10-26T13:27:05.823Z,99.20
2022-10-26T13:29:54.127Z,99.00
2022-10-26T13:32:22.730Z,99.20
2022-10-26T13:34:51.472Z,99.10
2022-10-26T13:37:27.443Z,99.00
2022-10-26T13:39:56.371Z,99.10
2022-10-26T13:42:27.784Z,99.20
2022-10-26T13:44:57.992Z,98.90
2022-10-26T13:47:29.106Z,99.00
2022-10-26T13:50:14.663Z,99.10
2022-10-26T13:52:47.560Z,99.20
2022-10-26T13:55:19.165Z,99.50
2022-10-26T13:58:03.556Z,99.50
2022-10-26T14:00:32.387Z,99.70
2022-10-26T14:03:00.309Z,99.40
2022-10-26T14:05:28.384Z,99.40
2022-10-26T14:07:59.203Z,99.30
2022-10-26T14:10:47.595Z,99.20
2022-10-26T14:13:18.400Z,99.10
2022-10-26T14:15:46.803Z,99.30
2022-10-26T14:18:25.435Z,99.00
2022-10-26T14:21:12.550Z,99.30
2022-10-26T14:23:48.101Z,99.40
2022-10-26T14:26:32.778Z,99.50
2022-10-26T14:29:01.953Z,99.40
2022-10-26T14:31:32.992Z,99.40
2022-10-26T14:34:04.489Z,99.40
2022-10-26T14:36:40.622Z,99.40
2022-10-26T14:39:20.715Z,99.50
2022-10-26T14:41:50.803Z,99.70
2022-10-26T14:44:22.940Z,99.60
2022-10-26T14:46:51.738Z,99.60
2022-10-26T14:49:22.945Z,99.70
2022-10-26T14:52:00.759Z,99.80
2022-10-26T14:54:30.227Z,99.80
2022-10-26T14:56:58.459Z,99.80
2022-10-26T14:59:29.991Z,99.80
2022-10-26T15:02:20.069Z,99.90
2022-10-26T15:05:17.921Z,99.90
2022-10-26T15:07:46.178Z,99.90
2022-10-26T15:10:38.866Z,99.90
2022-10-26T15:13:29.392Z,99.90
2022-10-26T15:16:08.421Z,99.90
2022-10-26T15:18:38.857Z,99.90
2022-10-26T15:21:23.849Z,99.90
2022-10-26T15:23:54.271Z,99.90
2022-10-26T15:26:22.219Z,99.90
2022-10-26T15:28:50.553Z,99.90
2022-10-26T15:31:18.281Z,99.90
2022-10-26T15:33:52.573Z,99.90
2022-10-26T15:36:23.780Z,99.90
2022-10-26T15:38:52.270Z,99.90
2022-10-26T15:41:36.823Z,99.90
2022-10-26T15:44:14.813Z,99.90
2022-10-26T15:46:43.360Z,99.90
2022-10-26T15:49:18.013Z,99.90
2022-10-26T15:51:47.650Z,99.90
2022-10-26T15:54:16.565Z,99.90
2022-10-26T15:56:44.484Z,99.90
2022-10-26T15:59:18.521Z,99.90
2022-10-26T16:01:49.159Z,99.90
2022-10-26T16:04:17.261Z,99.90
2022-10-26T16:06:46.426Z,99.90
2022-10-26T16:09:18.152Z,99.90
2022-10-26T16:11:46.231Z,99.90
2022-10-26T16:14:14.315Z,99.90
2022-10-26T16:16:42.162Z,99.90
2022-10-26T16:19:29.943Z,99.90
2022-10-26T16:21:58.695Z,99.90
2022-10-26T16:24:28.159Z,99.90
2022-10-26T16:26:56.438Z,99.90
2022-10-26T16:29:24.551Z,99.90
2022-10-26T16:31:52.316Z,99.90
2022-10-26T16:34:20.336Z,99.90
2022-10-26T16:36:49.034Z,99.90
2022-10-26T16:39:17.227Z,99.90
2022-10-26T16:41:44.976Z,99.90
2022-10-26T16:44:15.881Z,99.90
2022-10-26T16:46:44.106Z,99.90
2022-10-26T16:49:12.466Z,99.90
2022-10-26T16:51:40.724Z,99.90
2022-10-26T16:54:08.836Z,99.90
2022-10-26T16:56:40.270Z,99.90
2022-10-26T16:59:10.750Z,99.90
2022-10-26T17:01:38.654Z,99.90
2022-10-26T17:04:06.910Z,99.90
2022-10-26T17:06:34.861Z,99.90
2022-10-26T17:09:06.182Z,99.90
2022-10-26T17:11:33.820Z,99.90
2022-10-26T17:14:01.934Z,99.90
2022-10-26T17:16:29.890Z,99.90
2022-10-26T17:18:57.933Z,99.90
2022-10-26T17:21:31.830Z,99.90
2022-10-26T17:24:00.408Z,99.90
2022-10-26T17:26:29.045Z,99.90
2022-10-26T17:28:57.905Z,99.90
2022-10-26T17:31:26.699Z,99.90
2022-10-26T17:33:56.175Z,99.90
2022-10-26T17:36:26.017Z,99.90
2022-10-26T17:38:55.422Z,99.90
2022-10-26T17:41:23.548Z,99.90
2022-10-26T17:43:51.759Z,99.90
2022-10-26T17:46:23.161Z,99.90
2022-10-26T17:48:59.019Z,99.90
2022-10-26T17:51:28.553Z,99.90
2022-10-26T17:53:59.297Z,99.90
2022-10-26T17:56:30.191Z,99.90
2022-10-26T17:59:04.572Z,99.90
2022-10-26T18:01:33.229Z,99.90
2022-10-26T18:04:02.214Z,99.90
2022-10-26T18:06:30.178Z,99.90
2022-10-26T18:08:58.990Z,99.90
2022-10-26T18:11:28.639Z,99.90
2022-10-26T18:13:57.721Z,99.90
2022-10-26T18:16:27.446Z,99.90
2022-10-26T18:19:01.750Z,99.90
2022-10-26T18:21:33.364Z,99.90
2022-10-26T18:24:01.799Z,99.90
2022-10-26T18:26:31.146Z,99.90
2022-10-26T18:29:01.091Z,99.90
2022-10-26T18:31:31.610Z,99.90
2022-10-26T18:34:02.058Z,99.90
2022-10-26T18:36:31.084Z,99.90
2022-10-26T18:38:59.762Z,99.90
2022-10-26T18:41:28.434Z,99.90
2022-10-26T18:44:00.774Z,99.90
2022-10-26T18:46:34.222Z,99.90
2022-10-26T18:49:02.568Z,99.90
2022-10-26T18:51:33.480Z,99.90
2022-10-26T18:54:02.499Z,99.90
2022-10-26T18:56:30.777Z,99.90
2022-10-26T18:59:00.232Z,99.90
2022-10-26T19:01:29.848Z,99.90
2022-10-26T19:04:03.511Z,99.90
2022-10-26T19:06:33.891Z,99.90
2022-10-26T19:09:02.851Z,99.90
2022-10-26T19:11:31.618Z,99.90
2022-10-26T19:13:59.864Z,99.90
2022-10-26T19:16:45.494Z,99.90
2022-10-26T19:19:16.538Z,99.90
2022-10-26T19:21:49.148Z,99.90
2022-10-26T19:24:20.126Z,99.90
2022-10-26T19:26:48.911Z,99.90
2022-10-26T19:29:18.306Z,99.90
2022-10-26T19:31:47.550Z,99.90
2022-10-26T19:34:17.019Z,99.90
2022-10-26T19:36:46.573Z,99.90
2022-10-26T19:39:16.922Z,99.90
2022-10-26T19:41:46.185Z,99.90
2022-10-26T19:44:15.457Z,99.90
2022-10-26T19:46:43.999Z,99.90
2022-10-26T19:49:17.740Z,99.90
2022-10-26T19:51:46.628Z,99.90
2022-10-26T19:54:14.698Z,99.90
2022-10-26T19:56:42.441Z,99.90
2022-10-26T19:59:11.453Z,99.90
2022-10-26T20:01:39.447Z,99.90
2022-10-26T20:04:07.689Z,99.90
2022-10-26T20:06:35.458Z,99.90
2022-10-26T20:09:04.175Z,99.90
2022-10-26T20:11:36.745Z,99.90
2022-10-26T20:14:07.734Z,99.90
2022-10-26T20:16:35.610Z,99.90
2022-10-26T20:19:04.032Z,99.90
2022-10-26T20:21:32.352Z,99.90
2022-10-26T20:24:00.404Z,99.90
2022-10-26T20:26:28.754Z,99.90
2022-10-26T20:28:57.266Z,99.90
2022-10-26T20:31:25.221Z,99.90
2022-10-26T20:33:53.533Z,99.90
2022-10-26T20:36:21.494Z,99.90
2022-10-26T20:38:50.000Z,99.90
2022-10-26T20:41:18.295Z,99.90
2022-10-26T20:43:46.707Z,99.90
2022-10-26T20:46:33.050Z,99.90
2022-10-26T20:49:01.589Z,99.90
2022-10-26T20:52:19.284Z,99.90
2022-10-26T20:54:52.878Z,99.90
2022-10-26T20:57:28.479Z,99.90
2022-10-26T21:00:07.681Z,99.90
2022-10-26T21:02:35.765Z,99.90
2022-10-26T21:05:04.133Z,99.90
2022-10-26T21:07:31.874Z,99.90
2022-10-26T21:09:59.950Z,99.90
2022-10-26T21:12:27.802Z,99.90
2022-10-26T21:14:55.983Z,99.90
2022-10-26T21:17:23.738Z,99.90
2022-10-26T21:19:51.818Z,99.90
2022-10-26T21:22:19.596Z,99.90
2022-10-26T21:24:47.701Z,99.90
2022-10-26T21:27:15.462Z,99.90
2022-10-26T21:29:43.671Z,99.90
2022-10-26T21:32:11.419Z,99.90
2022-10-26T21:34:39.413Z,99.90
2022-10-26T21:37:07.152Z,99.90
2022-10-26T21:39:35.239Z,99.90
2022-10-26T21:42:03.234Z,99.90
2022-10-26T21:44:41.056Z,99.90
2022-10-26T21:47:10.839Z,99.90
2022-10-26T21:49:39.435Z,99.90
2022-10-26T21:52:08.149Z,99.90
2022-10-26T21:54:36.326Z,99.90
2022-10-26T21:57:04.341Z,99.90
2022-10-26T21:59:32.496Z,99.90
2022-10-26T22:02:00.533Z,99.90
2022-10-26T22:04:29.042Z,99.90
2022-10-26T22:06:56.833Z,99.90
2022-10-26T22:09:25.034Z,99.90
2022-10-26T22:11:52.770Z,99.90
2022-10-26T22:14:20.932Z,99.90
2022-10-26T22:16:48.901Z,99.90
2022-10-26T22:19:17.074Z,99.90
2022-10-26T22:21:44.897Z,99.90
2022-10-26T22:24:13.155Z,99.90
2022-10-26T22:26:41.093Z,99.90
2022-10-26T22:29:09.976Z,99.90
2022-10-26T22:31:39.670Z,99.90
2022-10-26T22:34:13.520Z,99.90
2022-10-26T22:36:41.602Z,99.90
2022-10-26T22:39:10.161Z,99.90
2022-10-26T22:41:37.960Z,99.90
2022-10-26T22:44:06.065Z,99.90
2022-10-26T22:46:33.956Z,99.90
2022-10-26T22:49:02.925Z,99.90
2022-10-26T22:51:33.307Z,99.90
2022-10-26T22:54:03.218Z,99.90
2022-10-26T22:56:33.142Z,99.90
2022-10-26T22:59:01.284Z,99.90
2022-10-26T23:01:32.119Z,99.90
2022-10-26T23:04:00.619Z,99.90
2022-10-26T23:06:31.397Z,99.90
2022-10-26T23:08:59.983Z,99.90
2022-10-26T23:11:28.974Z,99.90
2022-10-26T23:14:02.134Z,99.90
2022-10-26T23:16:30.864Z,99.90
2022-10-26T23:18:59.824Z,99.90
2022-10-26T23:21:29.828Z,99.90
2022-10-26T23:23:58.771Z,99.90
2022-10-26T23:26:26.955Z,99.90
2022-10-26T23:28:55.241Z,99.90
2022-10-26T23:31:25.871Z,99.90
2022-10-26T23:33:56.158Z,99.90
2022-10-26T23:36:25.783Z,99.90
2022-10-26T23:38:53.864Z,99.90
2022-10-26T23:41:21.647Z,99.90
2022-10-26T23:43:49.949Z,99.90
2022-10-26T23:46:17.866Z,99.90
2022-10-26T23:48:46.105Z,99.90
2022-10-26T23:51:13.893Z,99.90
2022-10-26T23:53:44.701Z,99.90
2022-10-26T23:56:12.575Z,99.90
2022-10-26T23:58:40.619Z,99.90
